createdAt,value
2023-04-18T00:00:07.147Z,13.43
2023-04-18T00:02:59.258Z,11.55
2023-04-18T00:05:48.281Z,13.13
2023-04-18T00:08:34.449Z,13.30
2023-04-18T00:11:20.831Z,12.80
2023-04-18T00:14:06.783Z,14.20
2023-04-18T00:16:54.328Z,13.70
2023-04-18T00:19:43.599Z,12.40
2023-04-18T00:22:29.225Z,13.25
2023-04-18T00:25:15.929Z,13.73
2023-04-18T00:28:02.208Z,11.75
2023-04-18T00:30:49.361Z,14.45
2023-04-18T00:33:35.354Z,13.50
2023-04-18T00:36:21.682Z,11.88
2023-04-18T00:39:23.854Z,12.70
2023-04-18T00:42:09.699Z,14.68
2023-04-18T00:44:55.232Z,13.10
2023-04-18T00:47:40.759Z,13.20
2023-04-18T00:50:27.145Z,12.65
2023-04-18T00:53:13.842Z,13.85
2023-04-18T00:55:59.578Z,14.52
2023-04-18T00:58:46.115Z,13.85
2023-04-18T01:01:33.635Z,12.27
2023-04-18T01:04:20.007Z,13.38
2023-04-18T01:07:06.689Z,14.70
2023-04-18T01:09:54.536Z,13.10
2023-04-18T01:12:41.072Z,13.70
2023-04-18T01:15:27.597Z,13.95
2023-04-18T01:18:16.810Z,14.70
2023-04-18T01:21:02.378Z,15.05
2023-04-18T01:23:53.185Z,15.63
2023-04-18T01:26:40.150Z,14.48
2023-04-18T01:29:26.485Z,16.67
2023-04-18T01:32:12.244Z,14.43
2023-04-18T01:34:57.740Z,15.05
2023-04-18T01:37:43.159Z,15.45
2023-04-18T01:40:30.099Z,14.90
2023-04-18T01:43:15.710Z,15.90
2023-04-18T01:46:01.703Z,16.75
2023-04-18T01:48:47.080Z,15.35
2023-04-18T01:51:33.205Z,14.73
2023-04-18T01:54:19.557Z,14.70
2023-04-18T01:57:06.015Z,15.65
2023-04-18T01:59:52.229Z,14.50
2023-04-18T02:02:38.499Z,15.00
2023-04-18T02:05:25.122Z,16.75
2023-04-18T02:08:11.813Z,16.35
2023-04-18T02:10:57.861Z,14.75
2023-04-18T02:13:44.296Z,15.77
2023-04-18T02:16:31.155Z,16.85
2023-04-18T02:19:17.467Z,15.00
2023-04-18T02:22:02.930Z,15.32
2023-04-18T02:24:50.900Z,17.05
2023-04-18T02:27:36.859Z,20.02
2023-04-18T02:30:23.657Z,16.65
2023-04-18T02:33:09.495Z,16.08
2023-04-18T02:35:55.121Z,17.13
2023-04-18T02:38:41.125Z,18.65
2023-04-18T02:41:26.791Z,17.65
2023-04-18T02:44:14.538Z,16.27
2023-04-18T02:47:00.912Z,17.00
2023-04-18T02:49:46.520Z,17.02
2023-04-18T02:52:32.796Z,17.38
2023-04-18T02:55:18.990Z,16.98
2023-04-18T02:58:05.431Z,15.55
2023-04-18T03:00:58.581Z,17.08
2023-04-18T03:04:04.861Z,16.60
2023-04-18T03:07:01.605Z,16.45
2023-04-18T03:09:51.161Z,21.08
2023-04-18T03:12:42.236Z,17.55
2023-04-18T03:15:32.768Z,17.55
2023-04-18T03:18:19.411Z,18.00
2023-04-18T03:21:04.925Z,17.75
2023-04-18T03:23:53.201Z,18.70
2023-04-18T03:26:41.105Z,15.88
2023-04-18T03:29:27.313Z,18.90
2023-04-18T03:32:13.183Z,16.60
2023-04-18T03:34:58.769Z,18.42
2023-04-18T03:37:44.963Z,17.67
2023-04-18T03:40:37.504Z,16.98
2023-04-18T03:43:29.722Z,18.00
2023-04-18T03:46:15.718Z,18.20
2023-04-18T03:49:01.799Z,18.45
2023-04-18T03:51:50.768Z,19.92
2023-04-18T03:54:37.107Z,16.85
2023-04-18T03:57:23.957Z,18.23
2023-04-18T04:00:12.463Z,18.85
2023-04-18T04:03:14.019Z,18.65
2023-04-18T04:06:00.211Z,19.58
2023-04-18T04:08:46.023Z,20.00
2023-04-18T04:11:34.089Z,18.75
2023-04-18T04:14:20.394Z,18.92
2023-04-18T04:17:06.767Z,18.27
2023-04-18T04:19:53.250Z,20.85
2023-04-18T04:22:40.381Z,19.27
2023-04-18T04:25:29.783Z,20.00
2023-04-18T04:28:23.215Z,19.45
2023-04-18T04:31:14.591Z,19.38
2023-04-18T04:34:03.164Z,20.70
2023-04-18T04:36:49.564Z,23.33
2023-04-18T04:39:35.574Z,20.42
2023-04-18T04:42:54.111Z,19.92
2023-04-18T04:45:52.857Z,20.15
2023-04-18T04:48:42.594Z,20.27
2023-04-18T04:51:28.511Z,20.83
2023-04-18T04:54:15.139Z,21.00
2023-04-18T04:57:04.417Z,20.77
2023-04-18T04:59:50.034Z,18.92
2023-04-18T05:02:35.805Z,20.88
2023-04-18T05:05:21.950Z,21.48
2023-04-18T05:08:07.637Z,20.40
2023-04-18T05:10:53.426Z,20.00
2023-04-18T05:13:39.706Z,20.33
2023-04-18T05:16:25.822Z,20.13
2023-04-18T05:19:11.888Z,19.38
2023-04-18T05:21:57.668Z,20.65
2023-04-18T05:24:43.389Z,20.20
2023-04-18T05:27:29.149Z,20.20
2023-04-18T05:30:15.060Z,20.08
2023-04-18T05:33:02.298Z,20.05
2023-04-18T05:35:49.078Z,21.27
2023-04-18T05:38:35.062Z,21.35
2023-04-18T05:41:21.996Z,19.15
2023-04-18T05:44:08.108Z,21.17
2023-04-18T05:46:54.098Z,19.25
2023-04-18T05:49:39.828Z,20.48
2023-04-18T05:52:26.200Z,20.25
2023-04-18T05:55:12.110Z,20.73
2023-04-18T05:57:57.869Z,20.90
2023-04-18T06:00:43.703Z,20.83
2023-04-18T06:03:30.082Z,21.35
2023-04-18T06:06:15.663Z,20.95
2023-04-18T06:09:01.574Z,23.45
2023-04-18T06:11:47.686Z,23.42
2023-04-18T06:14:33.873Z,21.70
2023-04-18T06:17:19.752Z,21.02
2023-04-18T06:20:06.265Z,21.83
2023-04-18T06:22:52.561Z,25.98
2023-04-18T06:25:41.457Z,22.23
2023-04-18T06:28:27.421Z,22.83
2023-04-18T06:31:13.027Z,22.40
2023-04-18T06:33:58.518Z,22.00
2023-04-18T06:36:44.244Z,22.10
2023-04-18T06:39:30.547Z,23.88
2023-04-18T06:42:16.312Z,21.77
2023-04-18T06:45:08.398Z,26.65
2023-04-18T06:47:54.749Z,24.17
2023-04-18T06:50:40.491Z,23.17
2023-04-18T06:53:26.347Z,22.50
2023-04-18T06:56:12.119Z,21.98
2023-04-18T06:58:58.893Z,21.35
2023-04-18T07:01:45.687Z,23.98
2023-04-18T07:04:31.505Z,22.30
2023-04-18T07:07:17.505Z,23.10
2023-04-18T07:10:04.925Z,21.30
2023-04-18T07:12:51.182Z,22.98
2023-04-18T07:15:39.294Z,22.73
2023-04-18T07:19:28.658Z,22.83
2023-04-18T07:22:12.386Z,22.33
2023-04-18T07:24:58.215Z,23.40
2023-04-18T07:27:44.215Z,21.73
2023-04-18T07:30:30.824Z,22.52
2023-04-18T07:33:17.064Z,23.48
2023-04-18T07:36:03.760Z,22.23
2023-04-18T07:38:51.659Z,24.08
2023-04-18T07:41:38.079Z,19.90
2023-04-18T07:44:25.375Z,20.45
2023-04-18T07:47:12.141Z,22.75
2023-04-18T07:49:57.977Z,24.70
2023-04-18T07:52:48.574Z,22.67
2023-04-18T07:55:34.184Z,20.88
2023-04-18T07:58:22.209Z,22.02
2023-04-18T08:01:27.663Z,20.35
2023-04-18T08:04:19.753Z,21.65
2023-04-18T08:07:07.261Z,22.40
2023-04-18T08:09:57.087Z,23.00
2023-04-18T08:12:45.746Z,22.55
2023-04-18T08:15:35.286Z,22.33
2023-04-18T08:18:23.061Z,20.42
2023-04-18T08:21:09.179Z,19.83
2023-04-18T08:23:55.716Z,21.95
2023-04-18T08:26:41.566Z,24.30
2023-04-18T08:29:27.795Z,23.73
2023-04-18T08:32:16.749Z,23.50
2023-04-18T08:35:09.249Z,22.73
2023-04-18T08:37:55.876Z,21.63
2023-04-18T08:40:43.831Z,22.40
2023-04-18T08:43:31.317Z,22.92
2023-04-18T08:46:19.553Z,24.85
2023-04-18T08:49:06.837Z,23.23
2023-04-18T08:51:54.571Z,22.05
2023-04-18T08:54:46.690Z,21.05
2023-04-18T08:57:33.404Z,23.00
2023-04-18T09:00:19.789Z,21.17
2023-04-18T09:03:06.889Z,21.60
2023-04-18T09:06:11.691Z,21.95
2023-04-18T09:08:59.107Z,22.13
2023-04-18T09:11:44.789Z,22.00
2023-04-18T09:14:33.001Z,22.40
2023-04-18T09:17:43.847Z,21.25
2023-04-18T09:20:37.507Z,22.35
2023-04-18T09:23:24.644Z,22.08
2023-04-18T09:26:10.308Z,23.20
2023-04-18T09:28:56.434Z,20.83
2023-04-18T09:32:03.513Z,22.40
2023-04-18T09:34:49.448Z,21.23
2023-04-18T09:37:36.003Z,21.05
2023-04-18T09:40:25.025Z,21.42
2023-04-18T09:43:20.936Z,21.75
2023-04-18T09:46:08.852Z,22.40
2023-04-18T09:48:55.194Z,20.98
2023-04-18T09:51:43.715Z,21.73
2023-04-18T09:54:33.255Z,22.25
2023-04-18T10:00:10.692Z,19.75
2023-04-18T10:02:59.336Z,20.50
2023-04-18T10:05:47.571Z,20.48
2023-04-18T10:08:33.990Z,19.67
2023-04-18T10:11:20.347Z,20.70
2023-04-18T10:14:13.354Z,17.98
2023-04-18T10:17:00.289Z,17.90
2023-04-18T10:19:47.662Z,18.05
2023-04-18T10:22:34.392Z,17.13
2023-04-18T10:25:35.250Z,15.90
2023-04-18T10:28:21.574Z,18.00
2023-04-18T10:31:08.824Z,18.48
2023-04-18T10:34:18.479Z,17.65
2023-04-18T10:37:06.363Z,18.90
2023-04-18T10:40:04.635Z,17.38
2023-04-18T10:42:54.007Z,21.60
2023-04-18T10:45:40.068Z,16.83
2023-04-18T10:48:30.327Z,19.00
2023-04-18T10:51:19.102Z,19.33
2023-04-18T10:54:10.361Z,19.33
2023-04-18T10:56:59.394Z,17.50
2023-04-18T11:02:37.147Z,15.30
2023-04-18T11:05:29.291Z,16.35
2023-04-18T11:08:24.671Z,16.90
2023-04-18T11:11:12.205Z,16.55
2023-04-18T11:14:02.294Z,16.30
2023-04-18T11:16:48.035Z,16.55
2023-04-18T11:19:34.733Z,16.20
2023-04-18T11:22:20.792Z,15.45
2023-04-18T11:25:10.297Z,19.67
2023-04-18T11:28:00.333Z,15.65
2023-04-18T11:30:46.186Z,16.80
2023-04-18T11:33:32.258Z,16.65
2023-04-18T11:36:18.218Z,16.00
2023-04-18T11:39:04.117Z,15.02
2023-04-18T11:41:50.737Z,13.55
2023-04-18T11:44:39.688Z,16.02
2023-04-18T11:47:28.987Z,15.77
2023-04-18T11:50:14.809Z,16.35
2023-04-18T11:53:00.778Z,16.63
2023-04-18T11:55:56.428Z,13.35
2023-04-18T11:58:42.965Z,14.05
2023-04-18T12:01:29.005Z,16.92
2023-04-18T12:04:16.904Z,14.50
2023-04-18T12:07:03.694Z,18.92
2023-04-18T12:09:52.611Z,15.93
2023-04-18T12:12:38.205Z,16.50
2023-04-18T12:15:28.823Z,14.27
2023-04-18T12:18:18.571Z,13.70
2023-04-18T12:21:05.913Z,15.38
2023-04-18T12:23:54.033Z,13.38
2023-04-18T12:26:46.423Z,16.08
2023-04-18T12:29:32.197Z,14.30
2023-04-18T12:32:18.904Z,15.40
2023-04-18T12:35:07.723Z,15.02
2023-04-18T12:37:57.824Z,14.33
2023-04-18T12:40:43.815Z,14.48
2023-04-18T12:43:30.695Z,13.00
2023-04-18T12:46:16.528Z,12.60
2023-04-18T12:49:02.831Z,14.85
2023-04-18T12:51:48.728Z,15.10
2023-04-18T12:54:37.922Z,13.07
2023-04-18T12:57:24.990Z,16.00
2023-04-18T13:01:27.386Z,15.52
2023-04-18T13:04:18.106Z,12.35
2023-04-18T13:07:04.318Z,14.75
2023-04-18T13:09:50.456Z,16.35
2023-04-18T13:12:36.509Z,13.20
2023-04-18T13:15:23.905Z,14.90
2023-04-18T13:18:09.449Z,16.75
2023-04-18T13:20:55.193Z,14.30
2023-04-18T13:23:41.507Z,13.55
2023-04-18T13:26:27.518Z,12.68
2023-04-18T13:29:13.814Z,15.02
2023-04-18T13:31:59.644Z,13.13
2023-04-18T13:34:47.726Z,13.00
2023-04-18T13:37:33.090Z,13.35
2023-04-18T13:40:18.775Z,14.13
2023-04-18T13:43:04.925Z,14.02
2023-04-18T13:45:50.621Z,14.10
2023-04-18T13:48:36.688Z,16.25
2023-04-18T13:51:22.431Z,16.15
2023-04-18T13:54:08.673Z,14.18
2023-04-18T13:56:57.287Z,14.77
2023-04-18T13:59:43.437Z,14.35
2023-04-18T14:02:29.620Z,13.15
2023-04-18T14:05:15.854Z,17.90
2023-04-18T14:08:05.265Z,14.68
2023-04-18T14:13:36.987Z,11.98
2023-04-18T14:16:22.889Z,15.50
2023-04-18T14:19:08.636Z,16.30
2023-04-18T14:21:54.615Z,15.38
2023-04-18T14:24:40.164Z,15.27
2023-04-18T14:27:26.297Z,15.90
2023-04-18T14:30:13.178Z,15.35
2023-04-18T14:32:59.704Z,16.35
2023-04-18T14:35:45.931Z,18.02
2023-04-18T14:38:32.236Z,17.30
2023-04-18T14:41:18.224Z,15.45
2023-04-18T14:44:05.621Z,12.38
2023-04-18T14:46:51.894Z,14.30
2023-04-18T14:49:37.975Z,14.55
2023-04-18T14:52:23.751Z,13.25
2023-04-18T14:55:10.141Z,14.55
2023-04-18T14:57:55.895Z,15.00
2023-04-18T15:00:41.842Z,17.70
2023-04-18T15:03:28.072Z,15.60
2023-04-18T15:06:14.319Z,16.35
2023-04-18T15:09:14.003Z,14.40
2023-04-18T15:12:07.574Z,14.43
2023-04-18T15:14:53.876Z,15.80
2023-04-18T15:17:40.584Z,15.18
2023-04-18T15:20:26.787Z,16.27
2023-04-18T15:23:14.124Z,14.40
2023-04-18T15:26:00.538Z,16.00
2023-04-18T15:28:46.712Z,15.18
2023-04-18T15:31:32.977Z,14.95
2023-04-18T15:34:18.630Z,14.75
2023-04-18T15:37:04.568Z,15.25
2023-04-18T15:39:50.644Z,14.35
2023-04-18T15:42:36.445Z,14.15
2023-04-18T15:45:22.541Z,12.98
2023-04-18T15:48:08.302Z,14.10
2023-04-18T15:50:54.439Z,14.13
2023-04-18T15:53:40.762Z,14.18
2023-04-18T15:56:27.666Z,13.13
2023-04-18T15:59:14.218Z,12.32
2023-04-18T16:02:00.664Z,13.05
2023-04-18T16:04:46.953Z,12.88
2023-04-18T16:07:33.279Z,12.60
2023-04-18T16:10:18.833Z,13.98
2023-04-18T16:13:04.624Z,15.15
2023-04-18T16:15:50.338Z,13.48
2023-04-18T16:18:36.425Z,10.82
2023-04-18T16:21:22.209Z,13.05
2023-04-18T16:24:08.891Z,14.13
2023-04-18T16:26:55.627Z,14.73
2023-04-18T16:29:41.262Z,15.48
2023-04-18T16:32:26.854Z,13.27
2023-04-18T16:35:13.035Z,16.65
2023-04-18T16:38:01.607Z,15.00
2023-04-18T16:40:50.170Z,15.93
2023-04-18T16:43:37.017Z,11.98
2023-04-18T16:46:23.041Z,15.80
2023-04-18T16:49:11.782Z,14.60
2023-04-18T16:51:57.531Z,17.08
2023-04-18T16:54:44.974Z,14.50
2023-04-18T16:57:30.600Z,12.73
2023-04-18T17:00:17.673Z,13.73
2023-04-18T17:03:04.050Z,14.35
2023-04-18T17:05:53.163Z,12.77
2023-04-18T17:08:49.399Z,13.98
2023-04-18T17:11:39.561Z,14.65
2023-04-18T17:14:25.992Z,14.70
2023-04-18T17:17:15.886Z,16.08
2023-04-18T17:20:02.076Z,13.77
2023-04-18T17:22:47.829Z,15.27
2023-04-18T17:25:34.002Z,15.38
2023-04-18T17:28:21.381Z,13.40
2023-04-18T17:31:07.806Z,13.57
2023-04-18T17:33:54.693Z,12.73
2023-04-18T17:36:40.292Z,13.45
2023-04-18T17:39:27.362Z,13.90
2023-04-18T17:42:12.981Z,16.45
2023-04-18T17:44:59.473Z,16.38
2023-04-18T17:47:44.932Z,15.15
2023-04-18T17:50:31.748Z,16.80
2023-04-18T17:53:18.082Z,14.60
2023-04-18T17:56:05.439Z,16.10
2023-04-18T17:58:51.487Z,12.93
2023-04-18T18:01:37.481Z,18.90
2023-04-18T18:04:26.353Z,22.70
2023-04-18T18:07:12.322Z,16.75
2023-04-18T18:09:57.814Z,14.52
2023-04-18T18:12:43.739Z,15.00
2023-04-18T18:15:29.758Z,15.73
2023-04-18T18:18:16.554Z,14.93
2023-04-18T18:21:02.418Z,16.05
2023-04-18T18:23:48.624Z,15.00
2023-04-18T18:26:37.788Z,16.65
2023-04-18T18:29:23.595Z,12.95
2023-04-18T18:32:09.836Z,14.15
2023-04-18T18:34:56.042Z,14.73
2023-04-18T18:37:42.129Z,14.80
2023-04-18T18:40:28.031Z,18.48
2023-04-18T18:43:14.215Z,15.68
2023-04-18T18:46:01.029Z,15.73
2023-04-18T18:48:48.526Z,14.75
2023-04-18T18:51:35.940Z,15.65
2023-04-18T18:54:21.418Z,17.85
2023-04-18T18:57:08.385Z,15.88
2023-04-18T18:59:55.674Z,16.73
2023-04-18T19:02:42.214Z,18.25
2023-04-18T19:05:28.273Z,15.35
2023-04-18T19:08:14.263Z,18.13
2023-04-18T19:11:01.192Z,15.38
2023-04-18T19:13:47.291Z,15.48
2023-04-18T19:16:34.186Z,17.70
2023-04-18T19:19:20.112Z,17.20
2023-04-18T19:22:06.636Z,16.75
2023-04-18T19:24:52.603Z,18.17
2023-04-18T19:27:38.931Z,17.08
2023-04-18T19:30:25.527Z,16.85
2023-04-18T19:33:11.374Z,16.20
2023-04-18T19:35:57.034Z,18.55
2023-04-18T19:38:43.151Z,16.30
2023-04-18T19:41:28.564Z,17.45
2023-04-18T19:44:15.462Z,16.77
2023-04-18T19:47:01.473Z,16.95
2023-04-18T19:49:48.542Z,16.88
2023-04-18T19:52:34.468Z,17.67
2023-04-18T19:55:20.366Z,15.50
2023-04-18T19:58:06.676Z,16.40
2023-04-18T20:00:56.766Z,16.27
2023-04-18T20:03:43.313Z,16.77
2023-04-18T20:06:29.382Z,17.85
2023-04-18T20:09:17.011Z,16.77
2023-04-18T20:12:02.769Z,16.00
2023-04-18T20:14:48.713Z,16.23
2023-04-18T20:17:34.725Z,15.27
2023-04-18T20:20:20.717Z,14.60
2023-04-18T20:23:06.656Z,17.92
2023-04-18T20:25:52.374Z,14.68
2023-04-18T20:28:38.148Z,13.85
2023-04-18T20:31:24.278Z,13.52
2023-04-18T20:34:10.173Z,14.50
2023-04-18T20:36:57.862Z,12.43
2023-04-18T20:39:44.579Z,13.43
2023-04-18T20:42:29.990Z,13.07
2023-04-18T20:45:17.140Z,13.27
2023-04-18T20:48:03.566Z,12.25
2023-04-18T20:50:52.172Z,13.30
2023-04-18T20:53:38.168Z,12.10
2023-04-18T20:56:23.966Z,13.98
2023-04-18T20:59:10.366Z,13.05
2023-04-18T21:01:56.088Z,12.00
2023-04-18T21:04:42.602Z,14.25
2023-04-18T21:07:29.402Z,12.20
2023-04-18T21:10:15.607Z,11.10
2023-04-18T21:13:02.316Z,10.30
2023-04-18T21:15:51.685Z,11.68
2023-04-18T21:18:37.710Z,9.73
2023-04-18T21:21:24.319Z,12.90
2023-04-18T21:24:10.896Z,12.57
2023-04-18T21:26:57.713Z,11.00
2023-04-18T21:29:43.942Z,13.77
2023-04-18T21:32:38.743Z,11.95
2023-04-18T21:35:25.207Z,11.73
2023-04-18T21:38:11.379Z,12.88
2023-04-18T21:40:57.579Z,12.35
2023-04-18T21:43:43.969Z,13.82
2023-04-18T21:46:30.523Z,13.00
2023-04-18T21:49:16.649Z,13.65
2023-04-18T21:52:02.965Z,12.55
2023-04-18T21:54:48.561Z,13.95
2023-04-18T21:57:34.773Z,12.50
2023-04-18T22:00:21.390Z,12.80
2023-04-18T22:03:09.022Z,15.05
2023-04-18T22:05:57.642Z,15.30
2023-04-18T22:08:43.953Z,14.47
2023-04-18T22:11:30.492Z,16.40
2023-04-18T22:14:16.962Z,14.13
2023-04-18T22:17:04.802Z,17.92
2023-04-18T22:19:50.768Z,14.85
2023-04-18T22:22:36.672Z,14.68
2023-04-18T22:25:22.413Z,12.93
2023-04-18T22:28:08.817Z,15.23
2023-04-18T22:30:54.701Z,12.38
2023-04-18T22:33:40.438Z,14.93
2023-04-18T22:36:28.201Z,15.57
2023-04-18T22:39:14.527Z,12.77
2023-04-18T22:42:00.657Z,14.57
2023-04-18T22:44:46.447Z,13.05
2023-04-18T22:47:33.453Z,12.52
2023-04-18T22:50:19.209Z,15.32
2023-04-18T22:53:05.154Z,14.73
2023-04-18T22:55:51.272Z,14.48
2023-04-18T22:58:37.070Z,14.73
2023-04-18T23:01:22.999Z,14.10
2023-04-18T23:04:08.822Z,14.55
2023-04-18T23:06:54.883Z,15.77
2023-04-18T23:09:40.711Z,13.80
2023-04-18T23:12:26.832Z,14.55
2023-04-18T23:15:12.635Z,15.93
2023-04-18T23:17:58.798Z,14.55
2023-04-18T23:20:44.847Z,14.00
2023-04-18T23:23:31.237Z,13.40
2023-04-18T23:26:17.957Z,14.05
2023-04-18T23:29:04.037Z,13.45
2023-04-18T23:31:50.261Z,13.10
2023-04-18T23:34:36.761Z,16.10
2023-04-18T23:37:22.578Z,13.27
2023-04-18T23:40:09.147Z,13.23
2023-04-18T23:42:54.499Z,14.32
2023-04-18T23:45:40.171Z,15.35
2023-04-18T23:48:25.846Z,14.90
2023-04-18T23:51:11.747Z,14.38
2023-04-18T23:53:57.504Z,12.95
2023-04-18T23:56:42.866Z,14.07
2023-04-18T23:59:28.459Z,14.27
